This is the latest recevied weather packets stored in our database for station/object HG5OJG-6. If no packets are shown the sender has not sent any weather packets the latest 10 day(s).
| Time | Temp. | Humidity | Pressure | Rain* | Wind** | Luminosity | Snow |
|---|---|---|---|---|---|---|---|
| 1778222179 | 18.33° C | 73% | 1015.1 hPa | 0 mm | - | 289 W/m² | - |
| 1778220962 | 17.22° C | 79% | 1015 hPa | 0 mm | - | 179 W/m² | - |
| 1778220326 | 17.22° C | 83% | 1015 hPa | 0 mm | - | 156 W/m² | - |
| 1778219731 | 16.11° C | 86% | 1015.1 hPa | 0 mm | - | 138 W/m² | - |
| 1778216741 | 12.22° C | 92% | 1014.7 hPa | 0 mm | - | 57 W/m² | - |
| 1778216155 | 11.67° C | 92% | 1014.7 hPa | 0 mm | - | 40 W/m² | - |
| 1778215561 | 11.67° C | 92% | 1014.7 hPa | 0 mm | - | 39 W/m² | - |
| 1778213751 | 11.11° C | 92% | 1014.5 hPa | 0 mm | - | 25 W/m² | - |
| 1778211347 | 11.11° C | 91% | 1014.4 hPa | 0 mm | - | 7 W/m² | - |
| 1778208973 | 11.67° C | 91% | 1014.3 hPa | 0 mm | - | 0 W/m² | - |
| 1778208377 | 11.67° C | 91% | 1014.4 hPa | 0 mm | - | 0 W/m² | - |
| 1778204772 | 11.67° C | 91% | 1014 hPa | 0 mm | - | 0 W/m² | - |
| 1778203610 | 11.67° C | 90% | 1013.8 hPa | 0 mm | - | 0 W/m² | - |
| 1778202376 | 12.22° C | 90% | 1013.7 hPa | 0 mm | - | 0 W/m² | - |
| 1778201770 | 12.22° C | 91% | 1013.7 hPa | 0 mm | - | 0 W/m² | - |
| 1778199973 | 12.22° C | 90% | 1013.8 hPa | 0 mm | - | 0 W/m² | - |
| 1778198120 | 12.22° C | 90% | 1014.1 hPa | 0 mm | - | 0 W/m² | - |
| 1778196919 | 12.78° C | 90% | 1014.3 hPa | 0 mm | - | 0 W/m² | - |
| 1778196343 | 12.78° C | 90% | 1014.4 hPa | 0 mm | - | 0 W/m² | - |
| 1778193951 | 12.78° C | 89% | 1014.5 hPa | 0 mm | - | 0 W/m² | - |
| 1778192758 | 12.78° C | 89% | 1014.5 hPa | 0 mm | - | 0 W/m² | - |
| 1778191546 | 12.78° C | 89% | 1014.4 hPa | 0 mm | - | 0 W/m² | - |
| 1778190960 | 12.78° C | 89% | 1014.4 hPa | 0 mm | - | 0 W/m² | - |
| 1778190345 | 12.78° C | 89% | 1014.4 hPa | 0 mm | - | 0 W/m² | - |
| 1778188575 | 13.33° C | 88% | 1014.3 hPa | 0 mm | - | 0 W/m² | - |
* Rain latest hour (hover to see other rain measurements)
** Current wind speed in m/s (hover to see current wind gust speed)